createdAt,value
2023-02-19T00:01:47.130Z,3.10
2023-02-19T00:04:16.843Z,2.80
2023-02-19T00:06:45.614Z,3.50
2023-02-19T00:09:15.142Z,2.80
2023-02-19T00:11:42.991Z,3.10
2023-02-19T00:14:15.320Z,2.90
2023-02-19T00:16:42.767Z,2.90
2023-02-19T00:19:18.392Z,2.80
2023-02-19T00:21:46.091Z,3.00
2023-02-19T00:24:15.395Z,3.20
2023-02-19T00:26:44.258Z,2.80
2023-02-19T00:29:20.856Z,2.90
2023-02-19T00:31:49.036Z,2.80
2023-02-19T00:34:16.574Z,3.00
2023-02-19T00:36:44.476Z,3.10
2023-02-19T00:39:15.903Z,3.00
2023-02-19T00:41:44.405Z,3.20
2023-02-19T00:44:12.361Z,3.10
2023-02-19T00:46:46.112Z,2.80
2023-02-19T00:49:21.108Z,3.10
2023-02-19T00:51:50.355Z,3.40
2023-02-19T00:54:18.294Z,3.70
2023-02-19T00:56:47.006Z,3.00
2023-02-19T00:59:17.223Z,3.40
2023-02-19T01:01:46.327Z,4.10
2023-02-19T01:04:13.882Z,3.40
2023-02-19T01:06:41.898Z,3.60
2023-02-19T01:09:09.364Z,3.50
2023-02-19T01:11:36.931Z,3.40
2023-02-19T01:14:05.064Z,3.80
2023-02-19T01:16:32.594Z,3.20
2023-02-19T01:19:00.630Z,3.40
2023-02-19T01:21:30.017Z,4.30
2023-02-19T01:23:58.644Z,3.60
2023-02-19T01:26:30.235Z,3.20
2023-02-19T01:28:58.937Z,3.40
2023-02-19T01:31:27.501Z,3.30
2023-02-19T01:33:58.950Z,3.30
2023-02-19T01:38:54.690Z,3.10
2023-02-19T01:41:26.507Z,3.10
2023-02-19T01:44:12.361Z,3.00
2023-02-19T01:46:46.447Z,3.20
2023-02-19T01:49:48.840Z,3.30
2023-02-19T01:52:25.876Z,3.30
2023-02-19T01:54:55.242Z,3.40
2023-02-19T01:57:27.862Z,3.70
2023-02-19T02:00:04.092Z,3.00
2023-02-19T02:02:31.592Z,3.20
2023-02-19T02:05:00.726Z,3.20
2023-02-19T02:07:46.613Z,3.50
2023-02-19T02:10:23.043Z,3.00
2023-02-19T02:12:57.967Z,2.60
2023-02-19T02:15:36.759Z,2.70
2023-02-19T02:18:22.106Z,2.90
2023-02-19T02:20:58.571Z,2.70
2023-02-19T02:24:04.301Z,2.60
2023-02-19T02:27:13.014Z,2.60
2023-02-19T02:30:15.574Z,2.40
2023-02-19T02:32:54.832Z,2.20
2023-02-19T02:35:34.572Z,2.90
2023-02-19T02:38:08.321Z,2.30
2023-02-19T02:40:36.974Z,2.10
2023-02-19T02:43:04.440Z,2.30
2023-02-19T02:45:36.662Z,2.10
2023-02-19T02:48:14.979Z,2.30
2023-02-19T02:51:03.066Z,2.40
2023-02-19T02:54:08.183Z,2.50
2023-02-19T02:56:36.492Z,2.40
2023-02-19T02:59:08.240Z,2.10
2023-02-19T03:02:06.263Z,2.80
2023-02-19T03:05:34.819Z,2.20
2023-02-19T03:08:23.633Z,1.90
2023-02-19T03:11:26.690Z,2.20
2023-02-19T03:14:24.301Z,1.90
2023-02-19T03:17:14.545Z,1.80
2023-02-19T03:19:50.416Z,1.70
2023-02-19T03:22:23.379Z,1.70
2023-02-19T03:25:30.351Z,1.70
2023-02-19T03:28:00.687Z,1.70
2023-02-19T03:30:33.982Z,2.20
2023-02-19T03:33:08.315Z,1.90
2023-02-19T03:35:45.369Z,2.00
2023-02-19T03:38:40.154Z,2.10
2023-02-19T03:41:19.447Z,1.60
2023-02-19T03:44:01.936Z,1.70
2023-02-19T03:46:53.055Z,1.50
2023-02-19T03:49:47.217Z,1.90
2023-02-19T03:52:45.337Z,1.40
2023-02-19T03:55:23.690Z,1.60
2023-02-19T03:57:58.697Z,1.30
2023-02-19T04:01:10.515Z,1.20
2023-02-19T04:03:46.631Z,1.40
2023-02-19T04:06:20.888Z,1.10
2023-02-19T04:08:52.786Z,2.00
2023-02-19T04:11:22.562Z,1.20
2023-02-19T04:14:17.392Z,1.00
2023-02-19T04:16:51.021Z,1.00
2023-02-19T04:19:21.508Z,1.50
2023-02-19T04:21:50.715Z,1.10
2023-02-19T04:24:36.475Z,1.10
2023-02-19T04:27:05.785Z,1.00
2023-02-19T04:29:33.196Z,1.10
2023-02-19T04:32:00.895Z,0.90
2023-02-19T04:34:28.406Z,1.10
2023-02-19T04:36:55.904Z,1.30
2023-02-19T04:39:23.319Z,1.20
2023-02-19T04:41:50.662Z,0.90
2023-02-19T04:44:18.023Z,1.10
2023-02-19T04:46:45.465Z,1.20
2023-02-19T04:49:12.875Z,1.20
2023-02-19T04:51:40.653Z,1.00
2023-02-19T04:54:08.759Z,1.10
2023-02-19T04:56:36.302Z,1.10
2023-02-19T04:59:03.970Z,1.00
2023-02-19T05:01:31.436Z,1.00
2023-02-19T05:03:59.148Z,1.10
2023-02-19T05:06:27.481Z,1.30
2023-02-19T05:08:54.924Z,1.10
2023-02-19T05:11:23.821Z,1.30
2023-02-19T05:13:51.441Z,1.40
2023-02-19T05:16:19.130Z,1.30
2023-02-19T05:18:47.281Z,1.20
2023-02-19T05:21:15.776Z,1.10
2023-02-19T05:23:43.526Z,0.90
2023-02-19T05:26:31.241Z,0.90
2023-02-19T05:29:00.193Z,1.10
2023-02-19T05:31:27.772Z,1.10
2023-02-19T05:33:56.519Z,1.30
2023-02-19T05:36:24.460Z,1.20
2023-02-19T05:38:57.047Z,1.50
2023-02-19T05:41:30.241Z,0.90
2023-02-19T05:43:58.250Z,1.00
2023-02-19T05:46:32.456Z,1.00
2023-02-19T05:48:59.983Z,0.90
2023-02-19T05:51:28.038Z,1.50
2023-02-19T05:53:56.677Z,1.20
2023-02-19T05:56:27.502Z,1.30
2023-02-19T05:58:55.768Z,1.00
2023-02-19T06:01:27.508Z,1.40
2023-02-19T06:03:57.522Z,1.20
2023-02-19T06:06:26.416Z,1.30
2023-02-19T06:08:54.847Z,1.30
2023-02-19T06:11:24.178Z,1.40
2023-02-19T06:13:51.749Z,1.30
2023-02-19T06:16:19.511Z,1.30
2023-02-19T06:18:47.007Z,1.20
2023-02-19T06:21:16.953Z,1.60
2023-02-19T06:23:45.264Z,1.30
2023-02-19T06:26:19.689Z,1.50
2023-02-19T06:28:50.274Z,2.00
2023-02-19T06:31:19.805Z,1.80
2023-02-19T06:33:48.294Z,1.70
2023-02-19T06:36:19.509Z,2.10
2023-02-19T06:38:47.416Z,2.00
2023-02-19T06:41:15.633Z,3.10
2023-02-19T06:43:43.242Z,2.30
2023-02-19T06:46:13.052Z,1.90
2023-02-19T06:48:42.510Z,2.60
2023-02-19T06:51:18.820Z,1.80
2023-02-19T06:53:46.498Z,1.90
2023-02-19T06:56:39.503Z,1.70
2023-02-19T06:59:11.359Z,1.90
2023-02-19T07:01:40.235Z,1.70
2023-02-19T07:04:08.124Z,2.20
2023-02-19T07:06:36.566Z,2.60
2023-02-19T07:09:06.230Z,2.10
2023-02-19T07:11:38.006Z,1.70
2023-02-19T07:14:08.688Z,1.90
2023-02-19T07:16:37.080Z,1.90
2023-02-19T07:19:04.622Z,2.30
2023-02-19T07:21:32.052Z,2.00
2023-02-19T07:23:59.465Z,1.70
2023-02-19T07:26:26.902Z,2.10
2023-02-19T07:28:54.585Z,2.20
2023-02-19T07:31:24.106Z,2.20
2023-02-19T07:33:52.471Z,1.80
2023-02-19T07:36:22.986Z,2.40
2023-02-19T07:38:58.300Z,2.20
2023-02-19T07:41:27.334Z,2.00
2023-02-19T07:43:54.905Z,2.50
2023-02-19T07:46:23.002Z,2.20
2023-02-19T07:48:50.710Z,2.20
2023-02-19T07:51:19.676Z,2.30
2023-02-19T07:53:50.199Z,2.60
2023-02-19T07:56:18.781Z,1.80
2023-02-19T07:58:46.514Z,2.00
2023-02-19T08:01:40.366Z,1.60
2023-02-19T08:04:08.404Z,1.60
2023-02-19T08:06:35.752Z,1.80
2023-02-19T08:09:04.951Z,1.90
2023-02-19T08:11:51.298Z,1.80
2023-02-19T08:14:18.816Z,1.70
2023-02-19T08:16:51.103Z,1.50
2023-02-19T08:19:19.295Z,1.60
2023-02-19T08:21:46.877Z,1.80
2023-02-19T08:24:14.302Z,1.60
2023-02-19T08:26:41.743Z,2.10
2023-02-19T08:29:09.203Z,2.20
2023-02-19T08:31:36.814Z,1.90
2023-02-19T08:34:04.965Z,1.90
2023-02-19T08:36:32.435Z,2.10
2023-02-19T08:38:59.923Z,2.20
2023-02-19T08:41:27.722Z,2.60
2023-02-19T08:43:55.153Z,2.30
2023-02-19T08:46:22.941Z,2.30
2023-02-19T08:48:50.470Z,2.20
2023-02-19T08:51:17.878Z,2.10
2023-02-19T08:53:46.296Z,2.10
2023-02-19T08:56:16.618Z,1.80
2023-02-19T08:58:44.799Z,1.90
2023-02-19T09:01:18.486Z,2.40
2023-02-19T09:03:46.242Z,1.90
2023-02-19T09:06:17.702Z,1.90
2023-02-19T09:08:45.509Z,1.50
2023-02-19T09:11:13.499Z,1.40
2023-02-19T09:13:41.723Z,1.40
2023-02-19T09:16:10.300Z,1.60
2023-02-19T09:18:38.110Z,2.00
2023-02-19T09:21:06.597Z,1.90
2023-02-19T09:23:35.579Z,1.80
2023-02-19T09:26:07.594Z,2.00
2023-02-19T09:28:35.500Z,1.90
2023-02-19T09:31:08.981Z,1.70
2023-02-19T09:33:36.754Z,1.20
2023-02-19T09:36:04.624Z,1.70
2023-02-19T09:38:31.999Z,1.70
2023-02-19T09:41:10.156Z,1.60
2023-02-19T09:43:38.352Z,1.70
2023-02-19T09:46:32.629Z,1.40
2023-02-19T09:49:34.410Z,1.50
2023-02-19T09:52:15.454Z,1.70
2023-02-19T09:54:43.816Z,1.50
2023-02-19T09:57:19.062Z,1.60
2023-02-19T09:59:51.750Z,1.70
2023-02-19T10:02:25.029Z,2.30
2023-02-19T10:04:53.778Z,2.00
2023-02-19T10:07:33.531Z,1.70
2023-02-19T10:10:20.978Z,1.90
2023-02-19T10:12:55.516Z,1.70
2023-02-19T10:15:31.666Z,1.80
2023-02-19T10:17:59.253Z,1.80
2023-02-19T10:20:28.039Z,1.90
2023-02-19T10:23:05.938Z,2.10
2023-02-19T10:25:35.446Z,2.30
2023-02-19T10:28:04.584Z,2.10
2023-02-19T10:30:35.161Z,2.20
2023-02-19T10:33:11.161Z,1.60
2023-02-19T10:35:59.554Z,3.50
2023-02-19T10:38:33.832Z,2.20
2023-02-19T10:41:05.936Z,2.20
2023-02-19T10:43:39.891Z,2.00
2023-02-19T10:46:16.755Z,1.80
2023-02-19T10:49:01.976Z,1.80
2023-02-19T10:51:41.322Z,3.00
2023-02-19T10:54:24.595Z,1.70
2023-02-19T10:56:52.247Z,2.10
2023-02-19T10:59:25.622Z,1.90
2023-02-19T11:01:57.784Z,1.90
2023-02-19T11:04:29.232Z,2.10
2023-02-19T11:06:57.779Z,1.80
2023-02-19T11:09:38.718Z,1.90
2023-02-19T11:12:08.505Z,2.60
2023-02-19T11:14:36.994Z,2.10
2023-02-19T11:17:05.672Z,1.90
2023-02-19T11:19:48.684Z,2.10
2023-02-19T11:22:34.396Z,2.00
2023-02-19T11:25:20.360Z,2.00
2023-02-19T11:28:09.414Z,2.50
2023-02-19T11:30:43.113Z,2.80
2023-02-19T11:33:27.389Z,2.10
2023-02-19T11:36:30.307Z,2.60
2023-02-19T11:39:07.809Z,2.10
2023-02-19T11:42:00.041Z,3.30
2023-02-19T11:44:34.115Z,2.60
2023-02-19T11:47:38.222Z,2.10
2023-02-19T11:50:33.699Z,2.10
2023-02-19T11:53:30.804Z,2.30
2023-02-19T11:56:50.188Z,2.10
2023-02-19T11:59:32.762Z,1.90
2023-02-19T12:02:57.764Z,2.30
2023-02-19T12:05:50.131Z,2.80
2023-02-19T12:08:49.827Z,2.50
2023-02-19T12:11:38.351Z,2.30
2023-02-19T12:14:36.255Z,2.50
2023-02-19T12:17:47.726Z,2.90
2023-02-19T12:20:32.124Z,2.70
2023-02-19T12:23:36.794Z,3.20
2023-02-19T12:26:23.624Z,3.20
2023-02-19T12:29:17.156Z,3.30
2023-02-19T12:31:53.285Z,3.40
2023-02-19T12:35:00.034Z,2.90
2023-02-19T12:37:44.333Z,3.20
2023-02-19T12:40:41.298Z,3.10
2023-02-19T12:43:22.428Z,3.20
2023-02-19T12:46:09.683Z,3.20
2023-02-19T12:48:40.259Z,3.60
2023-02-19T12:51:07.567Z,3.60
2023-02-19T12:53:49.896Z,3.60
2023-02-19T12:56:34.451Z,4.00
2023-02-19T12:59:09.473Z,3.50
2023-02-19T13:01:50.918Z,3.90
2023-02-19T13:04:53.897Z,3.50
2023-02-19T13:07:28.390Z,3.80
2023-02-19T13:10:25.359Z,3.00
2023-02-19T13:12:55.347Z,2.60
2023-02-19T13:15:44.204Z,2.50
2023-02-19T13:18:22.929Z,2.10
2023-02-19T13:20:54.996Z,2.30
2023-02-19T13:23:54.134Z,2.60
2023-02-19T13:27:02.086Z,2.60
2023-02-19T13:30:08.391Z,3.10
2023-02-19T13:33:21.580Z,2.90
2023-02-19T13:36:28.461Z,2.70
2023-02-19T13:38:57.823Z,2.60
2023-02-19T13:41:35.239Z,2.40
2023-02-19T13:44:08.203Z,2.20
2023-02-19T13:46:40.687Z,2.00
2023-02-19T13:49:28.260Z,3.00
2023-02-19T13:52:02.084Z,2.30
2023-02-19T13:54:37.139Z,2.60
2023-02-19T13:57:22.875Z,2.30
2023-02-19T13:59:51.912Z,2.50
2023-02-19T14:02:22.287Z,2.20
2023-02-19T14:05:10.171Z,2.10
2023-02-19T14:07:54.570Z,2.60
2023-02-19T14:10:57.963Z,2.70
2023-02-19T14:13:50.769Z,2.30
2023-02-19T14:16:37.993Z,2.90
2023-02-19T14:19:15.321Z,3.40
2023-02-19T14:21:43.948Z,2.80
2023-02-19T14:24:13.715Z,3.40
2023-02-19T14:26:41.843Z,3.10
2023-02-19T14:29:13.780Z,3.00
2023-02-19T14:31:45.988Z,3.10
2023-02-19T14:34:23.638Z,3.80
2023-02-19T14:37:00.949Z,3.90
2023-02-19T14:39:37.926Z,3.70
2023-02-19T14:42:08.986Z,3.80
2023-02-19T14:45:06.558Z,3.50
2023-02-19T14:47:35.959Z,3.30
2023-02-19T14:50:08.330Z,3.10
2023-02-19T14:52:48.352Z,3.40
2023-02-19T14:55:26.074Z,3.20
2023-02-19T14:57:55.369Z,3.20
2023-02-19T15:00:22.863Z,3.30
2023-02-19T15:02:53.503Z,3.80
2023-02-19T15:05:30.617Z,4.20
2023-02-19T15:08:03.884Z,4.00
2023-02-19T15:10:32.625Z,4.70
2023-02-19T15:13:08.982Z,4.20
2023-02-19T15:15:42.790Z,4.50
2023-02-19T15:18:22.952Z,4.50
2023-02-19T15:20:51.938Z,4.00
2023-02-19T15:23:24.135Z,3.90
2023-02-19T15:25:52.125Z,4.20
2023-02-19T15:28:25.366Z,4.40
2023-02-19T15:30:58.578Z,4.10
2023-02-19T15:33:28.138Z,4.40
2023-02-19T15:36:02.886Z,4.30
2023-02-19T15:38:30.723Z,4.80
2023-02-19T15:40:58.694Z,4.70
2023-02-19T15:43:33.761Z,5.10
2023-02-19T15:46:08.357Z,4.50
2023-02-19T15:48:57.008Z,4.10
2023-02-19T15:51:44.968Z,4.90
2023-02-19T15:54:33.514Z,4.60
2023-02-19T15:57:08.302Z,4.60
2023-02-19T15:59:50.374Z,5.00
2023-02-19T16:02:18.046Z,4.80
2023-02-19T16:04:45.836Z,4.80
2023-02-19T16:07:33.954Z,5.00
2023-02-19T16:10:19.978Z,4.80
2023-02-19T16:13:02.163Z,5.10
2023-02-19T16:15:32.305Z,4.80
2023-02-19T16:18:00.629Z,4.80
2023-02-19T16:20:36.274Z,4.80
2023-02-19T16:23:16.058Z,4.40
2023-02-19T16:25:44.894Z,4.60
2023-02-19T16:28:20.849Z,4.80
2023-02-19T16:30:57.886Z,4.70
2023-02-19T16:33:39.454Z,4.70
2023-02-19T16:36:48.378Z,4.50
2023-02-19T16:39:19.561Z,4.50
2023-02-19T16:41:47.659Z,5.20
2023-02-19T16:44:21.127Z,4.40
2023-02-19T16:46:57.369Z,5.40
2023-02-19T16:49:24.939Z,5.10
2023-02-19T16:51:53.814Z,5.20
2023-02-19T16:54:21.213Z,5.30
2023-02-19T16:56:48.616Z,5.70
2023-02-19T16:59:15.992Z,5.90
2023-02-19T17:01:43.673Z,5.50
2023-02-19T17:04:13.388Z,5.60
2023-02-19T17:06:41.022Z,5.30
2023-02-19T17:09:09.087Z,5.80
2023-02-19T17:11:36.775Z,5.60
2023-02-19T17:14:04.350Z,5.90
2023-02-19T17:16:40.385Z,5.60
2023-02-19T17:19:18.303Z,5.70
2023-02-19T17:21:47.220Z,5.70
2023-02-19T17:24:14.742Z,5.60
2023-02-19T17:26:42.576Z,6.10
2023-02-19T17:29:15.626Z,6.30
2023-02-19T17:31:43.262Z,5.80
2023-02-19T17:34:11.578Z,6.20
2023-02-19T17:36:39.177Z,5.80
2023-02-19T17:39:14.531Z,6.10
2023-02-19T17:41:42.270Z,5.90
2023-02-19T17:44:10.299Z,6.00
2023-02-19T17:46:39.507Z,6.10
2023-02-19T17:49:07.636Z,6.20
2023-02-19T17:51:35.413Z,6.00
2023-02-19T17:54:02.945Z,5.80
2023-02-19T17:56:30.542Z,5.90
2023-02-19T17:58:58.678Z,6.50
2023-02-19T18:01:26.156Z,7.10
2023-02-19T18:03:53.738Z,6.90
2023-02-19T18:06:21.085Z,6.60
2023-02-19T18:08:51.140Z,6.60
2023-02-19T18:11:22.021Z,6.80
2023-02-19T18:13:51.487Z,7.30
2023-02-19T18:16:19.468Z,6.90
2023-02-19T18:18:47.042Z,6.80
2023-02-19T18:21:14.700Z,7.30
2023-02-19T18:23:42.657Z,7.60
2023-02-19T18:26:11.296Z,8.20
2023-02-19T18:28:38.852Z,7.30
2023-02-19T18:31:07.252Z,8.40
2023-02-19T18:33:35.417Z,8.50
2023-02-19T18:36:04.105Z,7.90
2023-02-19T18:38:31.554Z,8.00
2023-02-19T18:40:59.156Z,8.50
2023-02-19T18:43:26.769Z,7.80
2023-02-19T18:45:54.240Z,8.40
2023-02-19T18:48:21.765Z,8.00
2023-02-19T18:50:49.141Z,8.60
2023-02-19T18:53:16.683Z,10.30
2023-02-19T18:55:44.243Z,8.50
2023-02-19T18:58:11.722Z,9.40
2023-02-19T19:00:39.115Z,9.20
2023-02-19T19:03:06.599Z,9.40
2023-02-19T19:05:34.116Z,9.40
2023-02-19T19:08:01.980Z,9.70
2023-02-19T19:10:30.533Z,10.60
2023-02-19T19:12:58.732Z,10.00
2023-02-19T19:15:26.510Z,10.30
2023-02-19T19:17:54.169Z,10.90
2023-02-19T19:20:23.407Z,11.20
2023-02-19T19:22:52.834Z,11.10
2023-02-19T19:25:22.991Z,10.90
2023-02-19T19:27:51.867Z,10.20
2023-02-19T19:30:20.282Z,10.30
2023-02-19T19:32:52.581Z,9.60
2023-02-19T19:35:21.702Z,9.90
2023-02-19T19:37:49.946Z,10.70
2023-02-19T19:40:18.555Z,10.10
2023-02-19T19:42:46.505Z,10.30
2023-02-19T19:45:15.343Z,10.40
2023-02-19T19:47:42.866Z,10.20
2023-02-19T19:50:13.115Z,10.50
2023-02-19T19:52:40.524Z,9.90
2023-02-19T19:55:08.371Z,10.20
2023-02-19T19:57:36.024Z,10.00
2023-02-19T20:00:05.005Z,10.90
2023-02-19T20:02:32.440Z,10.10
2023-02-19T20:04:59.816Z,11.40
2023-02-19T20:07:28.431Z,10.50
2023-02-19T20:09:55.837Z,11.00
2023-02-19T20:12:23.250Z,9.60
2023-02-19T20:14:50.710Z,10.40
2023-02-19T20:17:18.133Z,10.00
2023-02-19T20:19:46.188Z,10.70
2023-02-19T20:22:13.669Z,10.10
2023-02-19T20:24:41.146Z,10.00
2023-02-19T20:27:08.705Z,9.40
2023-02-19T20:29:36.412Z,10.70
2023-02-19T20:32:04.169Z,10.30
2023-02-19T20:34:32.171Z,11.50
2023-02-19T20:36:59.900Z,11.00
2023-02-19T20:39:29.401Z,10.60
2023-02-19T20:41:59.060Z,10.00
2023-02-19T20:44:28.270Z,10.10
2023-02-19T20:46:58.233Z,10.00
2023-02-19T20:49:30.394Z,10.40
2023-02-19T20:52:05.744Z,10.50
2023-02-19T20:54:35.317Z,9.50
2023-02-19T20:57:05.628Z,10.00
2023-02-19T20:59:38.679Z,9.80
2023-02-19T21:02:12.105Z,8.50
2023-02-19T21:04:40.626Z,11.80
2023-02-19T21:07:08.031Z,8.60
2023-02-19T21:09:35.480Z,9.60
2023-02-19T21:12:03.117Z,9.30
2023-02-19T21:14:30.537Z,9.00
2023-02-19T21:16:57.960Z,8.60
2023-02-19T21:19:25.822Z,8.70
2023-02-19T21:21:53.260Z,8.80
2023-02-19T21:24:21.240Z,9.10
2023-02-19T21:26:48.883Z,8.40
2023-02-19T21:29:22.162Z,9.20
2023-02-19T21:31:52.972Z,9.20
2023-02-19T21:34:24.988Z,9.20
2023-02-19T21:36:53.663Z,8.00
2023-02-19T21:39:23.965Z,8.30
2023-02-19T21:41:51.721Z,7.20
2023-02-19T21:44:21.247Z,7.70
2023-02-19T21:46:48.833Z,7.60
2023-02-19T21:49:17.250Z,7.90
2023-02-19T21:51:47.872Z,8.90
2023-02-19T21:54:25.056Z,9.40
2023-02-19T21:56:53.621Z,9.00
2023-02-19T21:59:22.692Z,9.50
2023-02-19T22:01:51.076Z,8.30
2023-02-19T22:04:21.814Z,8.20
2023-02-19T22:06:49.240Z,8.30
2023-02-19T22:09:17.102Z,8.60
2023-02-19T22:11:44.494Z,9.00
2023-02-19T22:14:11.843Z,9.50
2023-02-19T22:16:39.436Z,9.40
2023-02-19T22:19:06.861Z,9.10
2023-02-19T22:21:34.288Z,8.70
2023-02-19T22:24:03.242Z,8.20
2023-02-19T22:26:36.436Z,9.30
2023-02-19T22:29:07.369Z,9.00
2023-02-19T22:31:35.793Z,9.70
2023-02-19T22:34:04.220Z,9.20
2023-02-19T22:36:33.660Z,9.80
2023-02-19T22:39:01.723Z,9.50
2023-02-19T22:41:29.706Z,8.80
2023-02-19T22:43:58.773Z,9.40
2023-02-19T22:46:30.097Z,9.40
2023-02-19T22:51:26.064Z,9.00
2023-02-19T22:53:56.913Z,9.20
2023-02-19T22:56:27.479Z,9.90
2023-02-19T22:58:56.685Z,9.20
2023-02-19T23:01:24.854Z,9.00
2023-02-19T23:03:58.869Z,8.90
2023-02-19T23:06:34.698Z,7.70
2023-02-19T23:09:10.929Z,7.50
2023-02-19T23:11:39.359Z,8.90
2023-02-19T23:14:08.000Z,8.30
2023-02-19T23:16:36.870Z,7.80
2023-02-19T23:19:12.543Z,8.20
2023-02-19T23:21:43.257Z,7.70
2023-02-19T23:24:12.005Z,8.80
2023-02-19T23:26:49.437Z,8.30
2023-02-19T23:29:25.157Z,9.80
2023-02-19T23:31:54.264Z,10.60
2023-02-19T23:34:22.658Z,9.60
2023-02-19T23:36:50.754Z,10.50
2023-02-19T23:39:21.479Z,10.60
2023-02-19T23:41:52.753Z,11.00
2023-02-19T23:44:22.128Z,11.50
2023-02-19T23:46:50.610Z,10.30
2023-02-19T23:49:19.166Z,11.10
2023-02-19T23:51:46.554Z,11.00
2023-02-19T23:54:14.334Z,11.60
2023-02-19T23:56:41.773Z,10.50
2023-02-19T23:59:09.205Z,10.60
